Time;durP1;ratioP1;P1;durP2;ratioP2;P2;SDS_P1;SDS_P2;PMS_P1;PMS_P2;Temp;Humidity;BMP_temperature;BMP_pressure;BME280_temperature;BME280_humidity;BME280_pressure;Samples;Min_cycle;Max_cycle;Signal;HPM_P1;HPM_P2
2021/01/24 00:00:17;;;;;;;18.70;12.45;;;;;;;1.86;100.00;98431.55;1676349;84;21187;-66
2021/01/24 00:02:44;;;;;;;30.45;14.13;;;;;;;1.87;100.00;98444.92;1728809;82;21186;-66
2021/01/24 00:05:12;;;;;;;21.37;12.85;;;;;;;1.86;100.00;98431.55;1712503;81;21205;-66
2021/01/24 00:07:40;;;;;;;19.67;12.58;;;;;;;1.86;100.00;98438.89;1716898;83;21183;-66
2021/01/24 00:10:12;;;;;;;20.52;12.50;;;;;;;1.89;100.00;98428.67;1717497;83;21176;-66
2021/01/24 00:12:41;;;;;;;21.50;12.25;;;;;;;1.92;100.00;98425.34;1705533;83;21182;-66
2021/01/24 00:15:09;;;;;;;32.65;14.07;;;;;;;1.93;100.00;98422.29;1687464;84;21179;-66
2021/01/24 00:17:37;;;;;;;24.57;13.15;;;;;;;1.93;100.00;98427.02;1666381;84;21297;-66
2021/01/24 00:20:08;;;;;;;21.95;12.75;;;;;;;1.93;100.00;98411.86;1667701;84;21171;-66
2021/01/24 00:22:37;;;;;;;18.32;12.40;;;;;;;1.93;100.00;98426.20;1659460;86;21191;-66
2021/01/24 00:25:08;;;;;;;19.10;12.90;;;;;;;1.92;100.00;98408.89;1691702;84;21222;-66
2021/01/24 00:27:36;;;;;;;21.90;13.28;;;;;;;1.88;100.00;98403.58;1668234;84;21632;-66
2021/01/24 00:30:06;;;;;;;18.85;12.13;;;;;;;1.88;100.00;98402.27;1707985;81;21128;-66
2021/01/24 00:32:35;;;;;;;16.87;11.75;;;;;;;1.88;100.00;98394.45;1727765;83;21623;-66
2021/01/24 00:35:04;;;;;;;20.57;13.13;;;;;;;1.89;100.00;98405.21;1714752;83;21183;-66
2021/01/24 00:37:33;;;;;;;25.20;12.25;;;;;;;1.90;100.00;98402.97;1706166;83;21191;-66
2021/01/24 00:40:01;;;;;;;28.52;14.58;;;;;;;1.90;100.00;98386.02;1691744;84;21321;-66
2021/01/24 00:42:29;;;;;;;19.98;12.35;;;;;;;1.91;100.00;98386.39;1679262;84;21195;-66
2021/01/24 00:44:57;;;;;;;18.60;12.20;;;;;;;1.94;100.00;98375.69;1708556;83;21123;-66
2021/01/24 00:47:25;;;;;;;22.58;13.25;;;;;;;1.97;100.00;98371.54;1724641;83;21354;-66
2021/01/24 00:49:54;;;;;;;28.12;15.50;;;;;;;2.00;100.00;98377.82;1700646;83;21595;-66
2021/01/24 00:52:21;;;;;;;22.85;13.98;;;;;;;2.00;100.00;98386.09;1697692;83;21608;-66
2021/01/24 00:54:49;;;;;;;18.37;12.13;;;;;;;2.00;100.00;98366.09;1711984;82;21321;-66
2021/01/24 00:57:17;;;;;;;20.50;13.08;;;;;;;2.03;100.00;98372.81;1723497;83;21912;-66
2021/01/24 00:59:45;;;;;;;23.70;12.95;;;;;;;2.05;100.00;98363.09;1706479;83;21178;-66
2021/01/24 01:02:13;;;;;;;22.05;12.93;;;;;;;2.05;100.00;98367.81;1663036;84;21168;-66
2021/01/24 01:04:40;;;;;;;25.48;13.80;;;;;;;2.05;100.00;98371.73;1690704;84;21175;-66
2021/01/24 01:07:09;;;;;;;19.02;12.65;;;;;;;2.05;100.00;98356.56;1667508;84;21313;-66
2021/01/24 01:09:36;;;;;;;19.95;11.63;;;;;;;2.08;100.00;98359.75;1689611;84;21619;-66
2021/01/24 01:12:06;;;;;;;19.35;12.28;;;;;;;2.12;100.00;98348.59;1661033;86;21199;-66
2021/01/24 01:14:33;;;;;;;23.15;12.70;;;;;;;2.16;100.00;98347.86;1668079;84;21171;-66
2021/01/24 01:17:02;;;;;;;22.67;12.45;;;;;;;2.18;100.00;98342.03;1701497;83;21674;-66
2021/01/24 01:19:30;;;;;;;19.80;13.20;;;;;;;2.19;100.00;98343.22;1718636;81;21184;-67
2021/01/24 01:21:57;;;;;;;19.30;12.55;;;;;;;2.22;100.00;98344.73;1719719;83;21179;-66
2021/01/24 01:24:25;;;;;;;23.92;14.65;;;;;;;2.27;100.00;98346.49;1714477;83;21155;-66
2021/01/24 01:26:52;;;;;;;29.20;12.85;;;;;;;2.28;100.00;98358.56;1722714;82;21183;-66
2021/01/24 01:29:20;;;;;;;19.67;13.05;;;;;;;2.30;100.00;98353.59;1710442;83;21176;-66
2021/01/24 01:31:48;;;;;;;18.87;12.35;;;;;;;2.30;100.00;98359.26;1706435;83;21195;-67
2021/01/24 01:34:17;;;;;;;16.15;11.70;;;;;;;2.32;100.00;98348.25;1700318;83;21131;-66
2021/01/24 01:36:46;;;;;;;31.40;14.05;;;;;;;2.32;100.00;98347.77;1706049;83;21210;-66
2021/01/24 01:39:13;;;;;;;30.25;12.60;;;;;;;2.31;100.00;98348.70;1686228;84;21167;-66
2021/01/24 01:41:41;;;;;;;16.37;11.33;;;;;;;2.31;100.00;98350.49;1680732;84;21198;-66
2021/01/24 01:44:09;;;;;;;18.02;12.23;;;;;;;2.31;100.00;98344.78;1702464;83;21200;-66
2021/01/24 01:46:37;;;;;;;16.52;11.00;;;;;;;2.31;100.00;98343.97;1720800;83;21190;-66
2021/01/24 01:49:05;;;;;;;22.65;12.18;;;;;;;2.33;100.00;98354.61;1678923;83;21167;-67
2021/01/24 01:51:32;;;;;;;25.23;12.45;;;;;;;2.36;100.00;98340.96;1716413;83;21676;-66
2021/01/24 01:54:01;;;;;;;30.08;12.23;;;;;;;2.38;100.00;98349.03;1721315;83;21657;-66
2021/01/24 01:56:30;;;;;;;16.17;10.65;;;;;;;2.38;100.00;98350.33;1713366;83;21181;-66
2021/01/24 01:58:57;;;;;;;14.38;10.35;;;;;;;2.42;100.00;98350.91;1710063;81;21212;-66
2021/01/24 02:01:31;;;;;;;16.40;10.70;;;;;;;2.44;100.00;98343.28;1714998;83;21179;-67
2021/01/24 02:04:22;;;;;;;19.50;11.28;;;;;;;2.46;100.00;98334.03;1705707;83;21591;-67
2021/01/24 02:07:15;;;;;;;25.50;10.15;;;;;;;2.47;100.00;98337.82;1691509;84;21176;-66
2021/01/24 02:09:54;;;;;;;16.20;9.93;;;;;;;2.44;100.00;98334.16;1688791;83;21156;-66
2021/01/24 02:12:48;;;;;;;12.47;8.43;;;;;;;2.43;100.00;98323.38;1686809;83;21178;-66
2021/01/24 02:15:18;;;;;;;18.35;10.55;;;;;;;2.46;100.00;98328.81;1688440;84;21595;-66
2021/01/24 02:17:51;;;;;;;19.85;9.25;;;;;;;2.48;100.00;98318.58;1690476;84;21703;-65
2021/01/24 02:20:22;;;;;;;;;;;;;;;2.49;100.00;98310.30;1693761;84;21135;-65
2021/01/24 02:22:50;;;;;;;18.10;10.13;;;;;;;2.49;100.00;98308.50;1692463;84;20243;-65
2021/01/24 02:26:02;;;;;;;13.80;9.48;;;;;;;2.50;100.00;98301.49;1704783;81;21164;-65
2021/01/24 02:28:53;;;;;;;19.42;11.68;;;;;;;2.52;100.00;98305.64;1706743;83;21143;-65
2021/01/24 02:31:21;;;;;;;19.90;10.63;;;;;;;2.52;100.00;98308.25;1719651;83;21327;-65
2021/01/24 02:33:49;;;;;;;12.82;9.00;;;;;;;2.52;100.00;98313.47;1712017;83;21187;-65
2021/01/24 02:36:17;;;;;;;11.85;8.35;;;;;;;2.53;100.00;98310.38;1688652;84;21170;-64
2021/01/24 02:38:44;;;;;;;13.83;8.43;;;;;;;2.55;100.00;98308.45;1691432;83;21170;-64
2021/01/24 02:41:12;;;;;;;18.77;9.63;;;;;;;2.59;100.00;98314.25;1661347;86;21748;-65
2021/01/24 02:43:45;;;;;;;15.85;10.05;;;;;;;2.59;100.00;98309.84;1691805;84;21179;-65
2021/01/24 02:46:14;;;;;;;11.30;8.08;;;;;;;2.59;100.00;98320.77;1692389;84;21762;-65
2021/01/24 02:48:50;;;;;;;10.68;7.97;;;;;;;2.59;100.00;98308.54;1691824;83;21205;-65
2021/01/24 02:51:19;;;;;;;16.10;8.85;;;;;;;2.62;100.00;98304.83;1683649;84;21191;-65
2021/01/24 02:53:48;;;;;;;19.55;9.08;;;;;;;2.64;100.00;98295.11;1669194;84;21208;-64
2021/01/24 02:56:22;;;;;;;17.05;9.28;;;;;;;2.63;100.00;98300.79;1704384;83;21178;-67
2021/01/24 02:58:48;;;;;;;12.82;8.40;;;;;;;2.64;100.00;98292.02;1726433;83;21136;-65
2021/01/24 03:01:16;;;;;;;16.27;9.10;;;;;;;2.68;100.00;98300.41;1720236;82;21674;-65
2021/01/24 03:03:45;;;;;;;15.70;9.70;;;;;;;2.70;100.00;98293.27;1720367;83;21183;-66
2021/01/24 03:06:13;;;;;;;19.00;9.55;;;;;;;2.69;100.00;98290.30;1722159;83;21595;-65
2021/01/24 03:08:42;;;;;;;18.87;9.23;;;;;;;2.70;100.00;98283.64;1712765;83;21191;-65
2021/01/24 03:11:12;;;;;;;15.23;9.18;;;;;;;2.76;100.00;98284.08;1699426;83;21366;-65
2021/01/24 03:13:50;;;;;;;14.83;9.85;;;;;;;2.79;100.00;98275.51;1686964;84;21163;-65
2021/01/24 03:16:18;;;;;;;18.90;10.72;;;;;;;2.80;100.00;98276.33;1719449;82;21615;-64
2021/01/24 03:18:47;;;;;;;15.83;10.13;;;;;;;2.79;100.00;98277.30;1686269;84;21163;-65
2021/01/24 03:21:16;;;;;;;14.05;9.20;;;;;;;2.79;100.00;98272.08;1653872;86;21199;-65
2021/01/24 03:23:44;;;;;;;13.10;9.15;;;;;;;2.81;100.00;98272.28;1650357;85;21200;-65
2021/01/24 03:26:12;;;;;;;19.82;9.50;;;;;;;2.85;100.00;98257.18;1643999;86;21203;-65
2021/01/24 03:28:40;;;;;;;22.75;11.25;;;;;;;2.86;100.00;98266.19;1648357;86;21211;-65
2021/01/24 03:31:09;;;;;;;15.03;9.25;;;;;;;2.86;100.00;98261.42;1701606;82;21184;-65
2021/01/24 03:33:38;;;;;;;11.43;8.55;;;;;;;2.89;100.00;98250.72;1713174;83;21313;-66
2021/01/24 03:36:07;;;;;;;15.32;9.78;;;;;;;2.94;100.00;98251.61;1675057;81;21613;-65
2021/01/24 03:38:34;;;;;;;28.75;11.40;;;;;;;2.95;100.00;98249.36;1683754;84;21150;-66
2021/01/24 03:41:02;;;;;;;13.22;9.23;;;;;;;2.94;100.00;98250.30;1716884;83;21614;-65
2021/01/24 03:43:30;;;;;;;12.78;9.08;;;;;;;2.95;100.00;98241.52;1700213;83;21143;-66
2021/01/24 03:45:58;;;;;;;16.82;9.55;;;;;;;2.99;100.00;98242.41;1685977;84;21159;-65
2021/01/24 03:48:26;;;;;;;19.27;11.05;;;;;;;3.02;100.00;98253.09;1691252;84;21618;-66
2021/01/24 03:50:54;;;;;;;23.35;9.93;;;;;;;3.01;100.00;98239.67;1697995;83;21614;-65
2021/01/24 03:53:22;;;;;;;18.73;10.45;;;;;;;3.01;100.00;98250.12;1687911;84;21175;-66
2021/01/24 03:55:50;;;;;;;11.90;9.43;;;;;;;3.04;100.00;98252.47;1689145;84;21167;-65
2021/01/24 03:58:18;;;;;;;18.05;10.10;;;;;;;3.07;100.00;98249.11;1691910;84;21151;-65
2021/01/24 04:00:46;;;;;;;18.95;9.45;;;;;;;3.09;100.00;98235.43;1649703;85;21346;-66
2021/01/24 04:03:14;;;;;;;17.57;10.28;;;;;;;3.09;100.00;98234.13;1684650;84;21227;-66
2021/01/24 04:05:42;;;;;;;12.82;9.38;;;;;;;3.09;100.00;98243.27;1648502;86;21573;-65
2021/01/24 04:08:13;;;;;;;14.05;8.78;;;;;;;3.10;100.00;98234.94;1643313;85;21321;-65
2021/01/24 04:10:41;;;;;;;16.00;9.35;;;;;;;3.15;100.00;98237.98;1651477;86;21616;-66
2021/01/24 04:13:08;;;;;;;18.98;10.15;;;;;;;3.15;100.00;98233.24;1649640;84;21203;-66
2021/01/24 04:15:36;;;;;;;14.40;9.48;;;;;;;3.14;100.00;98232.40;1685996;84;21135;-66
2021/01/24 04:18:05;;;;;;;13.78;8.15;;;;;;;3.14;100.00;98235.50;1690192;84;21345;-66
2021/01/24 04:20:34;;;;;;;10.88;8.63;;;;;;;3.17;100.00;98232.63;1664893;85;21181;-66
2021/01/24 04:23:02;;;;;;;18.60;9.18;;;;;;;3.20;100.00;98230.56;1631146;84;21205;-66
2021/01/24 04:25:30;;;;;;;22.62;10.18;;;;;;;3.22;100.00;98230.44;1669465;84;21577;-66
2021/01/24 04:27:58;;;;;;;11.25;8.58;;;;;;;3.22;100.00;98216.06;1687449;84;21187;-66
2021/01/24 04:30:26;;;;;;;10.28;7.40;;;;;;;3.25;100.00;98236.19;1690195;84;21171;-66
2021/01/24 04:32:55;;;;;;;11.12;7.90;;;;;;;3.28;100.00;98223.34;1666054;84;22756;-66
2021/01/24 04:35:22;;;;;;;12.25;8.80;;;;;;;3.28;100.00;98235.92;1693002;84;21171;-66
2021/01/24 04:37:50;;;;;;;12.28;8.60;;;;;;;3.28;100.00;98225.47;1686020;84;21186;-66
2021/01/24 04:40:18;;;;;;;11.22;8.53;;;;;;;3.28;100.00;98222.04;1691200;84;21144;-65
2021/01/24 04:42:45;;;;;;;10.30;8.00;;;;;;;3.32;100.00;98218.67;1690335;84;21178;-67
2021/01/24 04:45:15;;;;;;;17.00;9.03;;;;;;;3.36;100.00;98218.73;1692832;84;21163;-66
2021/01/24 04:47:45;;;;;;;19.98;9.13;;;;;;;3.37;100.00;98215.17;1660101;85;21202;-65
2021/01/24 04:50:13;;;;;;;14.98;9.45;;;;;;;3.39;100.00;98226.31;1690209;84;21179;-66
2021/01/24 04:52:42;;;;;;;9.90;7.65;;;;;;;3.39;100.00;98215.37;1662666;84;21235;-66
2021/01/24 04:55:11;;;;;;;18.25;10.05;;;;;;;3.42;100.00;98225.55;1689235;84;21242;-65
2021/01/24 04:57:40;;;;;;;22.55;10.55;;;;;;;3.46;100.00;98206.47;1687905;84;21608;-65
2021/01/24 05:00:09;;;;;;;15.75;10.15;;;;;;;3.47;100.00;98201.60;1668014;84;21149;-66
2021/01/24 05:02:36;;;;;;;16.97;9.68;;;;;;;3.48;100.00;98205.88;1690105;84;21329;-66
2021/01/24 05:05:06;;;;;;;14.90;8.28;;;;;;;3.53;100.00;98205.45;1637054;84;21200;-66
2021/01/24 05:07:34;;;;;;;15.78;9.18;;;;;;;3.56;100.00;98203.88;1684225;84;21224;-66
2021/01/24 05:10:04;;;;;;;17.10;10.38;;;;;;;3.56;100.00;98208.61;1682317;84;21251;-66
2021/01/24 05:12:31;;;;;;;11.73;8.10;;;;;;;3.56;100.00;98206.48;1645774;84;21318;-66
2021/01/24 05:14:59;;;;;;;12.40;8.63;;;;;;;3.58;100.00;98205.38;1674682;84;21191;-66
2021/01/24 05:17:28;;;;;;;14.93;9.23;;;;;;;3.61;100.00;98212.95;1666433;85;21341;-66
2021/01/24 05:19:56;;;;;;;22.75;10.80;;;;;;;3.61;100.00;98209.03;1682346;84;21245;-66
2021/01/24 05:22:24;;;;;;;13.83;8.73;;;;;;;3.61;100.00;98208.18;1666249;85;21231;-65
2021/01/24 05:24:51;;;;;;;12.75;8.55;;;;;;;3.62;100.00;98194.98;1686294;84;21605;-65
2021/01/24 05:27:19;;;;;;;17.62;10.43;;;;;;;3.66;100.00;98204.18;1648393;85;21179;-66
2021/01/24 05:29:47;;;;;;;21.17;11.70;;;;;;;3.68;100.00;98202.28;1626325;84;21642;-66
2021/01/24 05:32:16;;;;;;;16.70;10.18;;;;;;;3.67;100.00;98198.00;1667626;84;21181;-66
2021/01/24 05:34:48;;;;;;;14.58;9.60;;;;;;;3.68;100.00;98193.59;1715951;83;21175;-66
2021/01/24 05:37:14;;;;;;;15.88;10.95;;;;;;;3.71;100.00;98188.58;1718120;83;21606;-66
2021/01/24 05:39:43;;;;;;;23.50;10.65;;;;;;;3.75;100.00;98193.38;1697099;83;21266;-66
2021/01/24 05:42:11;;;;;;;26.25;11.05;;;;;;;3.75;100.00;98193.38;1653189;83;21216;-66
2021/01/24 05:44:39;;;;;;;15.85;10.03;;;;;;;3.76;100.00;98207.27;1703741;83;21187;-66
2021/01/24 05:47:07;;;;;;;10.90;8.00;;;;;;;3.78;100.00;98195.72;1720355;81;21180;-66
2021/01/24 05:49:36;;;;;;;14.20;9.23;;;;;;;3.82;100.00;98197.08;1690065;83;21956;-66
2021/01/24 05:52:10;;;;;;;20.08;10.10;;;;;;;3.84;100.00;98193.02;1689510;85;21204;-66
2021/01/24 05:54:43;;;;;;;15.25;9.13;;;;;;;3.83;100.00;98200.02;1661612;84;21151;-66
2021/01/24 05:57:15;;;;;;;9.63;7.50;;;;;;;3.84;100.00;98185.17;1665030;84;21626;-66
2021/01/24 05:59:54;;;;;;;16.63;8.23;;;;;;;3.88;100.00;98196.50;1684549;84;21271;-68
2021/01/24 06:02:25;;;;;;;11.43;8.05;;;;;;;3.92;100.00;98181.35;1690726;84;21393;-66
2021/01/24 06:04:54;;;;;;;16.55;7.85;;;;;;;3.94;100.00;98180.72;1694685;83;21730;-66
2021/01/24 06:07:22;;;;;;;12.43;8.20;;;;;;;3.95;100.00;98171.11;1725773;82;21604;-65
2021/01/24 06:09:51;;;;;;;11.12;8.68;;;;;;;3.95;100.00;98173.23;1714587;83;21332;-65
2021/01/24 06:12:22;;;;;;;13.20;7.83;;;;;;;4.00;100.00;98176.25;1703221;83;21634;-65
2021/01/24 06:14:51;;;;;;;11.65;8.88;;;;;;;4.01;100.00;98173.95;1724672;83;21305;-65
2021/01/24 06:17:34;;;;;;;11.88;9.10;;;;;;;4.02;100.00;98163.00;1682309;84;21194;-65
2021/01/24 06:20:06;;;;;;;11.88;8.03;;;;;;;4.03;100.00;98164.17;1656956;85;21180;-68
2021/01/24 06:23:00;;;;;;;13.10;7.85;;;;;;;4.08;100.00;98159.34;1683988;83;21766;-67
2021/01/24 06:25:33;;;;;;;12.60;8.45;;;;;;;4.12;100.00;98157.76;1673609;83;21317;-68
2021/01/24 06:28:07;;;;;;;;;;;;;;;4.12;100.00;98164.30;1674659;84;21219;-67
2021/01/24 06:30:35;;;;;;;12.68;9.25;;;;;;;4.11;100.00;98162.64;1683434;84;20226;-68
2021/01/24 06:33:16;;;;;;;12.58;8.80;;;;;;;4.13;100.00;98158.08;1673352;85;21612;-67
2021/01/24 06:36:00;;;;;;;19.57;11.08;;;;;;;4.16;100.00;98159.93;1676121;84;21192;-67
2021/01/24 06:38:34;;;;;;;17.98;10.78;;;;;;;4.16;100.00;98169.09;1654928;85;21751;-67
2021/01/24 06:41:05;;;;;;;15.43;10.40;;;;;;;4.15;100.00;98165.30;1646468;85;21196;-66
2021/01/24 06:43:38;;;;;;;14.75;9.70;;;;;;;4.17;100.00;98170.75;1657402;85;21191;-67
2021/01/24 06:46:08;;;;;;;16.60;10.90;;;;;;;4.22;100.00;98190.74;1691899;84;21180;-66
2021/01/24 06:48:42;;;;;;;21.77;12.00;;;;;;;4.24;100.00;98176.21;1715209;82;21187;-68
2021/01/24 06:51:39;;;;;;;19.57;11.48;;;;;;;4.24;100.00;98171.80;1714479;83;21171;-66
2021/01/24 06:54:17;;;;;;;14.38;10.20;;;;;;;4.25;100.00;98163.48;1716251;83;22307;-67
2021/01/24 06:56:47;;;;;;;18.62;11.50;;;;;;;4.30;100.00;98179.55;1672725;84;21187;-65
2021/01/24 06:59:15;;;;;;;24.37;12.55;;;;;;;4.33;100.00;98175.84;1660188;86;21204;-66
2021/01/24 07:01:43;;;;;;;27.82;12.53;;;;;;;4.32;100.00;98185.49;1673317;84;21308;-67
2021/01/24 07:04:28;;;;;;;18.27;11.83;;;;;;;4.31;100.00;98185.63;1678974;84;21605;-67
2021/01/24 07:07:14;;;;;;;18.10;12.13;;;;;;;4.31;100.00;98172.05;1678081;84;21603;-66
2021/01/24 07:09:43;;;;;;;22.82;13.85;;;;;;;4.33;100.00;98172.73;1662608;85;21164;-67
2021/01/24 07:12:12;;;;;;;28.55;14.75;;;;;;;4.35;100.00;98176.52;1673447;84;21316;-66
2021/01/24 07:14:45;;;;;;;20.97;13.70;;;;;;;4.33;100.00;98171.42;1723613;83;21626;-67
2021/01/24 07:17:15;;;;;;;19.52;13.22;;;;;;;4.35;100.00;98178.64;1721850;83;21203;-67
2021/01/24 07:19:53;;;;;;;26.07;14.70;;;;;;;4.39;100.00;98168.22;1702651;83;21694;-67
2021/01/24 07:22:24;;;;;;;23.90;14.03;;;;;;;4.41;100.00;98170.20;1689037;84;21171;-66
2021/01/24 07:24:53;;;;;;;23.00;14.60;;;;;;;4.43;100.00;98169.59;1686639;84;21212;-66
2021/01/24 07:27:24;;;;;;;22.17;15.78;;;;;;;4.42;100.00;98169.73;1689739;83;21611;-67
2021/01/24 07:29:51;;;;;;;22.07;15.08;;;;;;;4.47;100.00;98164.89;1660863;84;21313;-67
2021/01/24 07:32:24;;;;;;;25.52;17.17;;;;;;;4.51;100.00;98164.94;1713486;83;21652;-66
2021/01/24 07:34:54;;;;;;;24.90;17.40;;;;;;;4.53;100.00;98168.72;1712120;83;21231;-65
2021/01/24 07:37:22;;;;;;;23.62;16.15;;;;;;;4.53;100.00;98156.94;1715765;83;21176;-66
2021/01/24 07:39:52;;;;;;;24.10;16.00;;;;;;;4.54;100.00;98165.11;1661407;84;21306;-68
2021/01/24 07:42:20;;;;;;;25.23;17.37;;;;;;;4.58;100.00;98158.61;1668983;84;21332;-67
2021/01/24 07:44:48;;;;;;;26.52;18.60;;;;;;;4.59;100.00;98167.62;1708511;82;21204;-68
2021/01/24 07:47:16;;;;;;;34.65;19.62;;;;;;;4.61;100.00;98161.76;1712509;83;21221;-65
2021/01/24 07:49:44;;;;;;;29.70;18.02;;;;;;;4.61;100.00;98159.14;1712024;81;21629;-65
2021/01/24 07:52:11;;;;;;;26.00;17.60;;;;;;;4.64;100.00;98159.35;1711891;83;21162;-67
2021/01/24 07:54:40;;;;;;;26.40;18.37;;;;;;;4.67;100.00;98160.34;1717245;83;21166;-67
2021/01/24 07:57:09;;;;;;;30.08;20.60;;;;;;;4.69;100.00;98158.41;1720637;83;21329;-67
2021/01/24 07:59:37;;;;;;;30.02;19.42;;;;;;;4.69;100.00;98154.47;1634047;84;21649;-66
2021/01/24 08:02:05;;;;;;;27.20;16.62;;;;;;;4.68;100.00;98144.98;1680832;84;21171;-67
2021/01/24 08:04:36;;;;;;;27.45;18.00;;;;;;;4.74;100.00;98140.95;1665477;85;21164;-66
2021/01/24 08:07:08;;;;;;;30.15;20.45;;;;;;;4.76;100.00;98132.45;1688510;84;21178;-67
2021/01/24 08:09:36;;;;;;;30.92;21.15;;;;;;;4.76;100.00;98142.93;1707360;83;21187;-68
2021/01/24 08:12:11;;;;;;;31.27;18.73;;;;;;;4.76;100.00;98142.44;1726146;83;21317;-67
2021/01/24 08:14:40;;;;;;;29.48;18.35;;;;;;;4.78;100.00;98139.67;1711698;82;21200;-67
2021/01/24 08:19:50;;;;;;;32.50;21.87;;;;;;;4.81;100.00;98140.20;1704898;82;21136;-68
2021/01/24 08:22:21;;;;;;;31.48;20.52;;;;;;;4.80;100.00;98138.54;1697234;83;21159;-66
2021/01/24 08:24:48;;;;;;;32.45;18.37;;;;;;;4.78;100.00;98123.47;1675992;84;21183;-65
2021/01/24 08:27:16;;;;;;;29.07;18.35;;;;;;;4.82;100.00;98127.42;1701243;82;21401;-66
2021/01/24 08:29:44;;;;;;;35.70;20.25;;;;;;;4.85;100.00;98121.91;1697298;83;21260;-67
2021/01/24 08:32:11;;;;;;;33.23;19.73;;;;;;;4.86;100.00;98109.16;1674132;83;21239;-67
2021/01/24 08:34:40;;;;;;;28.98;17.62;;;;;;;4.86;100.00;98121.41;1711684;83;21187;-66
2021/01/24 08:37:08;;;;;;;25.80;16.05;;;;;;;4.88;100.00;98119.95;1710531;83;21141;-66
2021/01/24 08:39:36;;;;;;;31.05;17.92;;;;;;;4.92;100.00;98109.50;1645445;84;21318;-68
2021/01/24 08:42:04;;;;;;;27.15;17.82;;;;;;;4.94;100.00;98111.02;1698769;83;21196;-67
2021/01/24 08:44:32;;;;;;;37.33;21.55;;;;;;;4.96;100.00;98115.62;1704313;82;21584;-68
2021/01/24 08:47:05;;;;;;;31.65;17.25;;;;;;;4.97;100.00;98114.62;1691666;84;21190;-66
2021/01/24 08:49:33;;;;;;;22.73;12.63;;;;;;;5.00;100.00;98104.35;1689716;84;21160;-68
2021/01/24 08:52:04;;;;;;;30.20;17.30;;;;;;;5.05;100.00;98111.28;1662102;84;21183;-67
2021/01/24 08:54:34;;;;;;;32.78;19.37;;;;;;;5.07;100.00;98110.64;1664928;84;21175;-67
2021/01/24 08:57:15;;;;;;;24.43;16.40;;;;;;;5.08;100.00;98116.20;1704169;84;21215;-67
2021/01/24 08:59:54;;;;;;;25.30;15.10;;;;;;;5.09;100.00;98123.56;1703543;83;21587;-67
2021/01/24 09:02:37;;;;;;;32.10;16.10;;;;;;;5.13;100.00;98106.09;1711548;84;21184;-66
2021/01/24 09:05:13;;;;;;;32.58;17.17;;;;;;;5.18;100.00;98123.97;1682227;83;22588;-68
2021/01/24 09:07:48;;;;;;;25.17;16.25;;;;;;;5.20;100.00;98112.38;1691128;83;21180;-67
2021/01/24 09:10:24;;;;;;;25.77;15.55;;;;;;;5.20;100.00;98108.45;1702303;83;21168;-67
2021/01/24 09:12:56;;;;;;;23.75;13.55;;;;;;;5.22;100.00;98114.36;1682565;84;21531;-66
2021/01/24 09:15:25;;;;;;;29.55;15.10;;;;;;;5.27;100.00;98101.28;1683137;84;21180;-66
2021/01/24 09:17:55;;;;;;;28.90;15.80;;;;;;;5.27;100.00;98103.91;1662260;85;21647;-67
2021/01/24 09:20:25;;;;;;;24.92;13.58;;;;;;;5.28;100.00;98105.56;1687726;84;21244;-66
2021/01/24 09:22:54;;;;;;;23.32;12.10;;;;;;;5.31;100.00;98109.17;1689239;84;21203;-66
2021/01/24 09:25:22;;;;;;;21.45;14.07;;;;;;;5.36;100.00;98100.36;1691174;84;21191;-68
2021/01/24 09:27:49;;;;;;;24.32;14.25;;;;;;;5.37;100.00;98096.28;1682880;85;21232;-68
2021/01/24 09:30:18;;;;;;;26.45;14.73;;;;;;;5.38;100.00;98093.98;1680897;85;21180;-68
2021/01/24 09:32:46;;;;;;;20.35;11.20;;;;;;;5.40;100.00;98099.08;1683014;85;21180;-68
2021/01/24 09:35:13;;;;;;;22.62;12.73;;;;;;;5.44;100.00;98091.23;1682186;85;21613;-68
2021/01/24 09:37:42;;;;;;;25.08;13.68;;;;;;;5.48;100.00;98089.97;1635597;86;21619;-67
2021/01/24 09:40:11;;;;;;;21.42;13.28;;;;;;;5.49;100.00;98080.30;1682923;84;21252;-68
2021/01/24 09:42:39;;;;;;;23.12;12.55;;;;;;;5.51;100.00;98086.20;1663225;85;21180;-67
2021/01/24 09:45:08;;;;;;;24.67;10.82;;;;;;;5.53;100.00;98071.95;1672235;85;21180;-66
2021/01/24 09:47:36;;;;;;;27.87;13.65;;;;;;;5.59;100.00;98084.47;1661596;85;21350;-67
2021/01/24 09:50:06;;;;;;;29.05;15.25;;;;;;;5.62;100.00;98072.83;1688367;84;21181;-68
2021/01/24 09:52:35;;;;;;;25.40;15.15;;;;;;;5.63;100.00;98077.92;1688418;84;21144;-67
2021/01/24 09:55:05;;;;;;;28.17;14.73;;;;;;;5.62;100.00;98078.89;1692516;84;21193;-67
2021/01/24 09:57:32;;;;;;;21.97;13.25;;;;;;;5.67;100.00;98065.79;1701163;84;21322;-66
2021/01/24 10:00:01;;;;;;;24.27;14.50;;;;;;;5.71;100.00;98076.33;1696008;83;21200;-67
2021/01/24 10:02:30;;;;;;;22.73;13.85;;;;;;;5.72;100.00;98061.72;1699795;83;21172;-67
2021/01/24 10:04:59;;;;;;;22.42;13.58;;;;;;;5.74;100.00;98064.20;1664100;84;21152;-67
2021/01/24 10:07:27;;;;;;;20.70;13.10;;;;;;;5.74;100.00;98056.33;1685034;85;21173;-67
2021/01/24 10:09:57;;;;;;;22.07;13.45;;;;;;;5.80;100.00;98053.09;1700624;84;21248;-67
2021/01/24 10:12:24;;;;;;;24.25;13.85;;;;;;;5.83;100.00;98055.38;1690235;83;21172;-68
2021/01/24 10:14:52;;;;;;;23.80;14.20;;;;;;;5.84;100.00;98060.98;1685392;83;21184;-67
2021/01/24 10:17:20;;;;;;;22.42;12.80;;;;;;;5.86;100.00;98060.33;1709171;83;21149;-68
2021/01/24 10:19:48;;;;;;;20.92;11.00;;;;;;;5.87;100.00;98055.39;1693932;83;21605;-68
2021/01/24 10:22:15;;;;;;;20.27;11.00;;;;;;;5.92;100.00;98062.31;1691415;83;21148;-67
2021/01/24 10:24:44;;;;;;;20.00;11.30;;;;;;;5.96;100.00;98044.48;1693038;83;21163;-67
2021/01/24 10:27:11;;;;;;;18.23;11.48;;;;;;;5.98;100.00;98046.45;1692050;83;21339;-67
2021/01/24 10:29:41;;;;;;;17.90;9.78;;;;;;;5.97;100.00;98051.39;1643461;86;21309;-67
2021/01/24 10:32:10;;;;;;;19.45;9.00;;;;;;;5.99;100.00;98052.05;1654172;86;21152;-67
2021/01/24 10:34:38;;;;;;;21.87;10.93;;;;;;;6.02;100.00;98042.06;1647599;85;21165;-66
2021/01/24 10:37:06;;;;;;;20.10;10.78;;;;;;;6.03;100.00;98045.50;1648898;85;21632;-67
2021/01/24 10:39:33;;;;;;;19.62;10.48;;;;;;;6.01;100.00;98028.59;1658765;84;21211;-67
2021/01/24 10:42:02;;;;;;;20.82;10.53;;;;;;;6.01;100.00;98036.47;1666820;86;21218;-68
2021/01/24 10:44:29;;;;;;;17.00;8.85;;;;;;;6.05;100.00;98035.66;1656835;85;21655;-67
2021/01/24 10:46:58;;;;;;;19.80;10.10;;;;;;;6.11;100.00;98043.39;1668407;84;21243;-67
2021/01/24 10:49:26;;;;;;;18.98;9.93;;;;;;;6.14;100.00;98037.83;1685136;83;21601;-67
2021/01/24 10:51:53;;;;;;;18.30;9.50;;;;;;;6.15;100.00;98040.77;1706006;83;21180;-66
2021/01/24 10:54:21;;;;;;;20.12;8.48;;;;;;;6.17;100.00;98038.80;1698583;83;21727;-66
2021/01/24 10:56:49;;;;;;;14.47;8.80;;;;;;;6.24;100.00;98030.62;1685773;83;21148;-66
2021/01/24 10:59:17;;;;;;;18.60;9.68;;;;;;;6.29;100.00;98034.09;1698960;83;21164;-66
2021/01/24 11:01:45;;;;;;;16.95;9.65;;;;;;;6.30;100.00;98029.97;1662062;84;21161;-67
2021/01/24 11:04:13;;;;;;;19.92;9.90;;;;;;;6.31;100.00;98023.75;1680651;84;21171;-68
2021/01/24 11:06:41;;;;;;;16.32;8.80;;;;;;;6.32;100.00;98013.59;1683752;84;21157;-66
2021/01/24 11:09:10;;;;;;;16.17;9.30;;;;;;;6.37;100.00;98004.72;1708637;83;21243;-66
2021/01/24 11:11:39;;;;;;;18.35;11.68;;;;;;;6.44;100.00;98012.78;1696577;83;21349;-68
2021/01/24 11:14:07;;;;;;;21.02;11.95;;;;;;;6.48;100.00;98005.41;1705530;83;21633;-67
2021/01/24 11:16:34;;;;;;;19.65;10.00;;;;;;;6.51;100.00;98005.05;1691499;82;21192;-67
2021/01/24 11:19:03;;;;;;;17.65;9.23;;;;;;;6.54;100.00;98007.37;1691416;83;21167;-68
2021/01/24 11:21:31;;;;;;;19.05;10.03;;;;;;;6.58;100.00;97996.86;1668356;83;21313;-67
2021/01/24 11:23:59;;;;;;;15.05;8.53;;;;;;;6.61;100.00;98003.11;1669359;84;21208;-67
2021/01/24 11:26:27;;;;;;;15.93;8.35;;;;;;;6.64;100.00;97991.44;1680877;83;21327;-66
2021/01/24 11:28:55;;;;;;;14.40;7.72;;;;;;;6.67;100.00;98009.52;1692990;82;21200;-66
2021/01/24 11:31:24;;;;;;;16.55;8.48;;;;;;;6.73;100.00;97995.71;1713592;83;21325;-69
2021/01/24 11:33:52;;;;;;;12.82;7.95;;;;;;;6.76;100.00;98021.16;1689041;84;21192;-68
2021/01/24 11:36:20;;;;;;;18.98;9.50;;;;;;;6.77;100.00;98000.48;1665601;84;21590;-68